sensor_id;sensor_type;location;lat;lon;timestamp;temperature;humidity
37642;DHT22;23486;51.956;5.888;2023-04-03T00:02:12;4.40;99.90
37642;DHT22;23486;51.956;5.888;2023-04-03T00:04:38;4.40;99.90
37642;DHT22;23486;51.956;5.888;2023-04-03T00:07:03;4.40;99.90
37642;DHT22;23486;51.956;5.888;2023-04-03T00:09:31;4.40;99.90
37642;DHT22;23486;51.956;5.888;2023-04-03T00:11:57;4.30;99.90
37642;DHT22;23486;51.956;5.888;2023-04-03T00:14:22;4.40;99.90
37642;DHT22;23486;51.956;5.888;2023-04-03T00:16:48;4.30;99.90
37642;DHT22;23486;51.956;5.888;2023-04-03T00:19:13;4.30;99.90
37642;DHT22;23486;51.956;5.888;2023-04-03T00:21:39;4.30;99.90
37642;DHT22;23486;51.956;5.888;2023-04-03T00:24:05;4.30;99.90
37642;DHT22;23486;51.956;5.888;2023-04-03T00:26:31;4.30;99.90
37642;DHT22;23486;51.956;5.888;2023-04-03T00:28:56;4.30;99.90
37642;DHT22;23486;51.956;5.888;2023-04-03T00:31:22;4.20;99.90
37642;DHT22;23486;51.956;5.888;2023-04-03T00:33:48;4.20;99.90
37642;DHT22;23486;51.956;5.888;2023-04-03T00:36:13;4.20;99.90
37642;DHT22;23486;51.956;5.888;2023-04-03T00:38:39;4.20;99.90
37642;DHT22;23486;51.956;5.888;2023-04-03T00:41:05;4.20;99.90
37642;DHT22;23486;51.956;5.888;2023-04-03T00:43:31;4.20;99.90
37642;DHT22;23486;51.956;5.888;2023-04-03T00:45:58;4.20;99.90
37642;DHT22;23486;51.956;5.888;2023-04-03T00:48:36;4.20;99.90
37642;DHT22;23486;51.956;5.888;2023-04-03T00:51:06;4.20;99.90
37642;DHT22;23486;51.956;5.888;2023-04-03T00:53:41;4.10;99.90
37642;DHT22;23486;51.956;5.888;2023-04-03T00:56:10;4.10;99.90
37642;DHT22;23486;51.956;5.888;2023-04-03T00:58:41;4.10;99.90
37642;DHT22;23486;51.956;5.888;2023-04-03T01:01:12;4.10;99.90
37642;DHT22;23486;51.956;5.888;2023-04-03T01:03:41;4.00;99.90
37642;DHT22;23486;51.956;5.888;2023-04-03T01:06:06;4.00;99.90
37642;DHT22;23486;51.956;5.888;2023-04-03T01:08:32;3.90;99.90
37642;DHT22;23486;51.956;5.888;2023-04-03T01:10:58;3.90;99.90
37642;DHT22;23486;51.956;5.888;2023-04-03T01:13:29;3.90;99.90
37642;DHT22;23486;51.956;5.888;2023-04-03T01:15:56;3.90;99.90
37642;DHT22;23486;51.956;5.888;2023-04-03T01:18:24;3.90;99.90
37642;DHT22;23486;51.956;5.888;2023-04-03T01:26:41;3.80;99.90
37642;DHT22;23486;51.956;5.888;2023-04-03T01:29:07;3.80;99.90
37642;DHT22;23486;51.956;5.888;2023-04-03T01:31:44;3.80;99.90
37642;DHT22;23486;51.956;5.888;2023-04-03T01:34:13;3.80;99.90
37642;DHT22;23486;51.956;5.888;2023-04-03T01:36:38;3.70;99.90
37642;DHT22;23486;51.956;5.888;2023-04-03T01:39:04;3.70;99.90
37642;DHT22;23486;51.956;5.888;2023-04-03T01:41:29;3.70;99.90
37642;DHT22;23486;51.956;5.888;2023-04-03T01:43:55;3.70;99.90
37642;DHT22;23486;51.956;5.888;2023-04-03T01:46:21;3.70;99.90
37642;DHT22;23486;51.956;5.888;2023-04-03T01:48:47;3.60;99.90
37642;DHT22;23486;51.956;5.888;2023-04-03T01:51:22;3.60;99.90
37642;DHT22;23486;51.956;5.888;2023-04-03T01:53:50;3.60;99.90
37642;DHT22;23486;51.956;5.888;2023-04-03T01:56:17;3.50;99.90
37642;DHT22;23486;51.956;5.888;2023-04-03T01:58:42;3.50;99.90
37642;DHT22;23486;51.956;5.888;2023-04-03T02:01:10;3.50;99.90
37642;DHT22;23486;51.956;5.888;2023-04-03T02:03:36;3.50;99.90
37642;DHT22;23486;51.956;5.888;2023-04-03T02:06:08;3.50;99.90
37642;DHT22;23486;51.956;5.888;2023-04-03T02:08:34;3.50;99.90
37642;DHT22;23486;51.956;5.888;2023-04-03T02:11:02;3.50;99.90
37642;DHT22;23486;51.956;5.888;2023-04-03T02:13:27;3.50;99.90
37642;DHT22;23486;51.956;5.888;2023-04-03T02:15:53;3.50;99.90
37642;DHT22;23486;51.956;5.888;2023-04-03T02:18:19;3.40;99.90
37642;DHT22;23486;51.956;5.888;2023-04-03T02:20:45;3.40;99.90
37642;DHT22;23486;51.956;5.888;2023-04-03T02:23:11;3.40;99.90
37642;DHT22;23486;51.956;5.888;2023-04-03T02:25:37;3.40;99.90
37642;DHT22;23486;51.956;5.888;2023-04-03T02:28:02;3.30;99.90
37642;DHT22;23486;51.956;5.888;2023-04-03T02:30:28;3.30;99.90
37642;DHT22;23486;51.956;5.888;2023-04-03T02:32:56;3.30;99.90
37642;DHT22;23486;51.956;5.888;2023-04-03T02:35:22;3.30;99.90
37642;DHT22;23486;51.956;5.888;2023-04-03T02:37:47;3.30;99.90
37642;DHT22;23486;51.956;5.888;2023-04-03T02:40:13;3.20;99.90
37642;DHT22;23486;51.956;5.888;2023-04-03T02:42:39;3.20;99.90
37642;DHT22;23486;51.956;5.888;2023-04-03T02:45:05;3.20;99.90
37642;DHT22;23486;51.956;5.888;2023-04-03T02:47:31;3.10;99.90
37642;DHT22;23486;51.956;5.888;2023-04-03T02:49:56;3.10;99.90
37642;DHT22;23486;51.956;5.888;2023-04-03T02:52:22;3.10;99.90
37642;DHT22;23486;51.956;5.888;2023-04-03T02:54:47;3.10;99.90
37642;DHT22;23486;51.956;5.888;2023-04-03T02:57:13;3.10;99.90
37642;DHT22;23486;51.956;5.888;2023-04-03T02:59:39;3.10;99.90
37642;DHT22;23486;51.956;5.888;2023-04-03T03:02:07;3.00;99.90
37642;DHT22;23486;51.956;5.888;2023-04-03T03:04:33;3.00;99.90
37642;DHT22;23486;51.956;5.888;2023-04-03T03:06:58;3.00;99.90
37642;DHT22;23486;51.956;5.888;2023-04-03T03:09:24;3.00;99.90
37642;DHT22;23486;51.956;5.888;2023-04-03T03:11:50;3.00;99.90
37642;DHT22;23486;51.956;5.888;2023-04-03T03:14:15;3.00;99.90
37642;DHT22;23486;51.956;5.888;2023-04-03T03:16:41;2.90;99.90
37642;DHT22;23486;51.956;5.888;2023-04-03T03:19:07;2.90;99.90
37642;DHT22;23486;51.956;5.888;2023-04-03T03:21:32;2.90;99.90
37642;DHT22;23486;51.956;5.888;2023-04-03T03:23:58;3.00;99.90
37642;DHT22;23486;51.956;5.888;2023-04-03T03:26:23;2.90;99.90
37642;DHT22;23486;51.956;5.888;2023-04-03T03:28:53;2.90;99.90
37642;DHT22;23486;51.956;5.888;2023-04-03T03:31:19;2.90;99.90
37642;DHT22;23486;51.956;5.888;2023-04-03T03:33:44;2.80;99.90
37642;DHT22;23486;51.956;5.888;2023-04-03T03:36:10;2.80;99.90
37642;DHT22;23486;51.956;5.888;2023-04-03T03:38:36;2.80;99.90
37642;DHT22;23486;51.956;5.888;2023-04-03T03:41:02;2.70;99.90
37642;DHT22;23486;51.956;5.888;2023-04-03T03:43:28;2.70;99.90
37642;DHT22;23486;51.956;5.888;2023-04-03T03:45:54;2.70;99.90
37642;DHT22;23486;51.956;5.888;2023-04-03T03:48:21;2.70;99.90
37642;DHT22;23486;51.956;5.888;2023-04-03T03:50:47;2.60;99.90
37642;DHT22;23486;51.956;5.888;2023-04-03T03:53:13;2.60;99.90
37642;DHT22;23486;51.956;5.888;2023-04-03T03:55:42;2.60;99.90
37642;DHT22;23486;51.956;5.888;2023-04-03T03:58:08;2.60;99.90
37642;DHT22;23486;51.956;5.888;2023-04-03T04:00:33;2.60;99.90
37642;DHT22;23486;51.956;5.888;2023-04-03T04:03:02;2.60;99.90
37642;DHT22;23486;51.956;5.888;2023-04-03T04:05:27;2.60;99.90
37642;DHT22;23486;51.956;5.888;2023-04-03T04:07:53;2.60;99.90
37642;DHT22;23486;51.956;5.888;2023-04-03T04:10:19;2.50;99.90
37642;DHT22;23486;51.956;5.888;2023-04-03T04:12:44;2.50;99.90
37642;DHT22;23486;51.956;5.888;2023-04-03T04:15:10;2.50;99.90
37642;DHT22;23486;51.956;5.888;2023-04-03T04:17:36;2.50;99.90
37642;DHT22;23486;51.956;5.888;2023-04-03T04:20:05;2.50;99.90
37642;DHT22;23486;51.956;5.888;2023-04-03T04:22:31;2.40;99.90
37642;DHT22;23486;51.956;5.888;2023-04-03T04:24:59;2.40;99.90
37642;DHT22;23486;51.956;5.888;2023-04-03T04:27:25;2.40;99.90
37642;DHT22;23486;51.956;5.888;2023-04-03T04:29:53;2.40;99.90
37642;DHT22;23486;51.956;5.888;2023-04-03T04:32:19;2.40;99.90
37642;DHT22;23486;51.956;5.888;2023-04-03T04:34:44;2.30;99.90
37642;DHT22;23486;51.956;5.888;2023-04-03T04:37:10;2.30;99.90
37642;DHT22;23486;51.956;5.888;2023-04-03T04:39:36;2.30;99.90
37642;DHT22;23486;51.956;5.888;2023-04-03T04:42:02;2.20;99.90
37642;DHT22;23486;51.956;5.888;2023-04-03T04:44:27;2.20;99.90
37642;DHT22;23486;51.956;5.888;2023-04-03T04:46:53;2.20;99.90
37642;DHT22;23486;51.956;5.888;2023-04-03T04:49:18;2.20;99.90
37642;DHT22;23486;51.956;5.888;2023-04-03T04:51:44;2.10;99.90
37642;DHT22;23486;51.956;5.888;2023-04-03T04:54:10;2.10;99.90
37642;DHT22;23486;51.956;5.888;2023-04-03T04:56:35;2.10;99.90
37642;DHT22;23486;51.956;5.888;2023-04-03T04:59:01;2.10;99.90
37642;DHT22;23486;51.956;5.888;2023-04-03T05:01:27;2.00;99.90
37642;DHT22;23486;51.956;5.888;2023-04-03T05:03:52;2.00;99.90
37642;DHT22;23486;51.956;5.888;2023-04-03T05:06:18;2.00;99.90
37642;DHT22;23486;51.956;5.888;2023-04-03T05:08:44;2.00;99.90
37642;DHT22;23486;51.956;5.888;2023-04-03T05:11:10;2.00;99.90
37642;DHT22;23486;51.956;5.888;2023-04-03T05:13:35;2.00;99.90
37642;DHT22;23486;51.956;5.888;2023-04-03T05:16:01;2.00;99.90
37642;DHT22;23486;51.956;5.888;2023-04-03T05:18:26;2.00;99.90
37642;DHT22;23486;51.956;5.888;2023-04-03T05:20:52;2.00;99.90
37642;DHT22;23486;51.956;5.888;2023-04-03T05:23:19;2.00;99.90
37642;DHT22;23486;51.956;5.888;2023-04-03T05:25:45;2.00;99.90
37642;DHT22;23486;51.956;5.888;2023-04-03T05:28:12;2.00;99.90
37642;DHT22;23486;51.956;5.888;2023-04-03T05:30:38;2.00;99.90
37642;DHT22;23486;51.956;5.888;2023-04-03T05:33:03;2.00;99.90
37642;DHT22;23486;51.956;5.888;2023-04-03T05:35:29;2.00;99.90
37642;DHT22;23486;51.956;5.888;2023-04-03T05:37:55;2.00;99.90
37642;DHT22;23486;51.956;5.888;2023-04-03T05:40:21;2.00;99.90
37642;DHT22;23486;51.956;5.888;2023-04-03T05:42:46;2.00;99.90
37642;DHT22;23486;51.956;5.888;2023-04-03T05:45:12;2.00;99.90
37642;DHT22;23486;51.956;5.888;2023-04-03T05:47:40;2.00;99.90
37642;DHT22;23486;51.956;5.888;2023-04-03T05:50:09;2.00;99.90
37642;DHT22;23486;51.956;5.888;2023-04-03T05:52:40;2.00;99.90
37642;DHT22;23486;51.956;5.888;2023-04-03T05:55:08;2.00;99.90
37642;DHT22;23486;51.956;5.888;2023-04-03T05:57:34;2.00;99.90
37642;DHT22;23486;51.956;5.888;2023-04-03T05:59:59;2.10;99.90
37642;DHT22;23486;51.956;5.888;2023-04-03T06:02:25;2.10;99.90
37642;DHT22;23486;51.956;5.888;2023-04-03T06:04:51;2.10;99.90
37642;DHT22;23486;51.956;5.888;2023-04-03T06:07:22;2.10;99.90
37642;DHT22;23486;51.956;5.888;2023-04-03T06:09:49;2.10;99.90
37642;DHT22;23486;51.956;5.888;2023-04-03T06:12:15;2.10;99.90
37642;DHT22;23486;51.956;5.888;2023-04-03T06:14:40;2.20;99.90
37642;DHT22;23486;51.956;5.888;2023-04-03T06:17:07;2.20;99.90
37642;DHT22;23486;51.956;5.888;2023-04-03T06:19:34;2.20;99.90
37642;DHT22;23486;51.956;5.888;2023-04-03T06:22:00;2.30;99.90
37642;DHT22;23486;51.956;5.888;2023-04-03T06:24:26;2.30;99.90
37642;DHT22;23486;51.956;5.888;2023-04-03T06:26:52;2.30;99.90
37642;DHT22;23486;51.956;5.888;2023-04-03T06:29:20;2.30;99.90
37642;DHT22;23486;51.956;5.888;2023-04-03T06:31:46;2.40;99.90
37642;DHT22;23486;51.956;5.888;2023-04-03T06:34:12;2.40;99.90
37642;DHT22;23486;51.956;5.888;2023-04-03T06:36:37;2.40;99.90
37642;DHT22;23486;51.956;5.888;2023-04-03T06:39:04;2.40;99.90
37642;DHT22;23486;51.956;5.888;2023-04-03T06:41:29;2.40;99.90
37642;DHT22;23486;51.956;5.888;2023-04-03T06:43:55;2.40;99.90
37642;DHT22;23486;51.956;5.888;2023-04-03T06:46:23;2.40;99.90
37642;DHT22;23486;51.956;5.888;2023-04-03T06:48:49;2.50;99.90
37642;DHT22;23486;51.956;5.888;2023-04-03T06:51:20;2.50;99.90
37642;DHT22;23486;51.956;5.888;2023-04-03T06:53:47;2.50;99.90
37642;DHT22;23486;51.956;5.888;2023-04-03T06:56:13;2.50;99.90
37642;DHT22;23486;51.956;5.888;2023-04-03T06:58:42;2.50;99.90
37642;DHT22;23486;51.956;5.888;2023-04-03T07:01:09;2.60;99.90
37642;DHT22;23486;51.956;5.888;2023-04-03T07:03:38;2.60;99.90
37642;DHT22;23486;51.956;5.888;2023-04-03T07:06:05;2.60;99.90
37642;DHT22;23486;51.956;5.888;2023-04-03T07:08:33;2.70;99.90
37642;DHT22;23486;51.956;5.888;2023-04-03T07:11:00;2.60;99.90
37642;DHT22;23486;51.956;5.888;2023-04-03T07:13:29;2.70;99.90
37642;DHT22;23486;51.956;5.888;2023-04-03T07:15:54;2.70;99.90
37642;DHT22;23486;51.956;5.888;2023-04-03T07:18:20;2.70;99.90
37642;DHT22;23486;51.956;5.888;2023-04-03T07:20:47;2.80;99.90
37642;DHT22;23486;51.956;5.888;2023-04-03T07:23:12;2.80;99.90
37642;DHT22;23486;51.956;5.888;2023-04-03T07:25:45;2.80;99.90
37642;DHT22;23486;51.956;5.888;2023-04-03T07:28:15;2.90;99.90
37642;DHT22;23486;51.956;5.888;2023-04-03T07:33:24;2.90;99.90
37642;DHT22;23486;51.956;5.888;2023-04-03T07:35:53;3.00;99.90
37642;DHT22;23486;51.956;5.888;2023-04-03T07:38:19;3.00;99.90
37642;DHT22;23486;51.956;5.888;2023-04-03T07:40:48;3.10;99.90
37642;DHT22;23486;51.956;5.888;2023-04-03T07:43:15;3.10;99.90
37642;DHT22;23486;51.956;5.888;2023-04-03T07:45:42;3.10;99.90
37642;DHT22;23486;51.956;5.888;2023-04-03T07:48:11;3.20;99.90
37642;DHT22;23486;51.956;5.888;2023-04-03T07:50:39;3.20;99.90
37642;DHT22;23486;51.956;5.888;2023-04-03T07:53:05;3.20;99.90
37642;DHT22;23486;51.956;5.888;2023-04-03T07:55:32;3.30;99.90
37642;DHT22;23486;51.956;5.888;2023-04-03T07:57:57;3.40;99.90
37642;DHT22;23486;51.956;5.888;2023-04-03T08:00:23;3.40;99.90
37642;DHT22;23486;51.956;5.888;2023-04-03T08:02:50;3.40;99.90
37642;DHT22;23486;51.956;5.888;2023-04-03T08:05:20;3.50;99.90
37642;DHT22;23486;51.956;5.888;2023-04-03T08:07:48;3.50;99.90
37642;DHT22;23486;51.956;5.888;2023-04-03T08:10:15;3.60;99.90
37642;DHT22;23486;51.956;5.888;2023-04-03T08:12:41;3.60;99.90
37642;DHT22;23486;51.956;5.888;2023-04-03T08:15:10;3.70;99.90
37642;DHT22;23486;51.956;5.888;2023-04-03T08:17:39;3.80;99.90
37642;DHT22;23486;51.956;5.888;2023-04-03T08:20:06;3.80;99.90
37642;DHT22;23486;51.956;5.888;2023-04-03T08:22:32;3.90;99.90
37642;DHT22;23486;51.956;5.888;2023-04-03T08:24:58;4.00;99.90
37642;DHT22;23486;51.956;5.888;2023-04-03T08:27:24;4.00;99.90
37642;DHT22;23486;51.956;5.888;2023-04-03T08:29:50;4.10;99.90
37642;DHT22;23486;51.956;5.888;2023-04-03T08:32:16;4.10;99.90
37642;DHT22;23486;51.956;5.888;2023-04-03T08:34:48;4.20;99.90
37642;DHT22;23486;51.956;5.888;2023-04-03T08:37:14;4.30;99.90
37642;DHT22;23486;51.956;5.888;2023-04-03T08:39:42;4.30;99.90
37642;DHT22;23486;51.956;5.888;2023-04-03T08:45:05;4.50;99.90
37642;DHT22;23486;51.956;5.888;2023-04-03T08:48:33;4.60;99.90
37642;DHT22;23486;51.956;5.888;2023-04-03T08:50:42;4.60;99.90
37642;DHT22;23486;51.956;5.888;2023-04-03T08:53:19;4.70;99.90
37642;DHT22;23486;51.956;5.888;2023-04-03T08:55:49;4.80;99.90
37642;DHT22;23486;51.956;5.888;2023-04-03T08:58:50;4.90;99.60
37642;DHT22;23486;51.956;5.888;2023-04-03T09:03:43;5.00;97.50
37642;DHT22;23486;51.956;5.888;2023-04-03T09:06:19;5.00;96.80
37642;DHT22;23486;51.956;5.888;2023-04-03T09:08:58;5.10;97.10
37642;DHT22;23486;51.956;5.888;2023-04-03T09:14:38;5.20;96.10
37642;DHT22;23486;51.956;5.888;2023-04-03T09:19:51;5.50;94.60
37642;DHT22;23486;51.956;5.888;2023-04-03T09:22:21;5.60;94.70
37642;DHT22;23486;51.956;5.888;2023-04-03T09:25:17;5.60;93.10
37642;DHT22;23486;51.956;5.888;2023-04-03T09:27:44;5.70;83.50
37642;DHT22;23486;51.956;5.888;2023-04-03T09:30:21;5.70;90.00
37642;DHT22;23486;51.956;5.888;2023-04-03T09:32:49;5.80;88.20
37642;DHT22;23486;51.956;5.888;2023-04-03T09:35:29;5.80;89.30
37642;DHT22;23486;51.956;5.888;2023-04-03T09:45:42;6.10;85.10
37642;DHT22;23486;51.956;5.888;2023-04-03T09:48:12;6.20;86.60
37642;DHT22;23486;51.956;5.888;2023-04-03T09:53:33;6.30;82.60
37642;DHT22;23486;51.956;5.888;2023-04-03T09:56:00;6.30;83.30
37642;DHT22;23486;51.956;5.888;2023-04-03T09:58:27;6.40;83.50
37642;DHT22;23486;51.956;5.888;2023-04-03T10:00:58;6.50;82.40
37642;DHT22;23486;51.956;5.888;2023-04-03T10:05:55;6.60;82.80
37642;DHT22;23486;51.956;5.888;2023-04-03T10:08:26;6.70;83.40
37642;DHT22;23486;51.956;5.888;2023-04-03T10:13:32;6.90;84.40
37642;DHT22;23486;51.956;5.888;2023-04-03T10:16:11;6.90;82.40
37642;DHT22;23486;51.956;5.888;2023-04-03T10:18:44;7.00;81.40
37642;DHT22;23486;51.956;5.888;2023-04-03T10:21:35;7.10;80.70
37642;DHT22;23486;51.956;5.888;2023-04-03T10:24:20;7.20;79.40
37642;DHT22;23486;51.956;5.888;2023-04-03T10:27:04;7.20;80.80
37642;DHT22;23486;51.956;5.888;2023-04-03T10:29:46;7.30;77.90
37642;DHT22;23486;51.956;5.888;2023-04-03T10:38:18;7.30;74.00
37642;DHT22;23486;51.956;5.888;2023-04-03T10:41:02;7.30;76.70
37642;DHT22;23486;51.956;5.888;2023-04-03T10:46:47;7.60;77.30
37642;DHT22;23486;51.956;5.888;2023-04-03T10:49:39;7.70;77.20
37642;DHT22;23486;51.956;5.888;2023-04-03T10:52:36;7.80;79.00
37642;DHT22;23486;51.956;5.888;2023-04-03T10:57:47;7.90;75.60
37642;DHT22;23486;51.956;5.888;2023-04-03T11:00:17;7.90;76.60
37642;DHT22;23486;51.956;5.888;2023-04-03T11:02:52;8.00;76.50
37642;DHT22;23486;51.956;5.888;2023-04-03T11:08:35;8.10;71.80
37642;DHT22;23486;51.956;5.888;2023-04-03T11:11:07;8.20;73.00
37642;DHT22;23486;51.956;5.888;2023-04-03T11:13:40;8.30;73.40
37642;DHT22;23486;51.956;5.888;2023-04-03T11:16:08;8.30;71.30
37642;DHT22;23486;51.956;5.888;2023-04-03T11:18:39;8.30;70.90
37642;DHT22;23486;51.956;5.888;2023-04-03T11:23:39;8.50;70.70
37642;DHT22;23486;51.956;5.888;2023-04-03T11:26:14;8.60;70.80
37642;DHT22;23486;51.956;5.888;2023-04-03T11:28:41;8.60;71.80
37642;DHT22;23486;51.956;5.888;2023-04-03T11:31:12;8.70;71.10
37642;DHT22;23486;51.956;5.888;2023-04-03T11:36:31;8.80;71.20
37642;DHT22;23486;51.956;5.888;2023-04-03T11:39:02;8.90;71.20
37642;DHT22;23486;51.956;5.888;2023-04-03T11:41:33;8.90;70.40
37642;DHT22;23486;51.956;5.888;2023-04-03T11:44:05;8.90;67.60
37642;DHT22;23486;51.956;5.888;2023-04-03T11:46:53;8.90;69.60
37642;DHT22;23486;51.956;5.888;2023-04-03T11:52:56;9.00;67.40
37642;DHT22;23486;51.956;5.888;2023-04-03T12:00:56;9.10;67.50
37642;DHT22;23486;51.956;5.888;2023-04-03T12:24:03;9.60;67.10
37642;DHT22;23486;51.956;5.888;2023-04-03T12:29:21;9.70;65.00
37642;DHT22;23486;51.956;5.888;2023-04-03T12:38:32;9.80;67.00
37642;DHT22;23486;51.956;5.888;2023-04-03T12:41:23;9.80;66.60
37642;DHT22;23486;51.956;5.888;2023-04-03T12:46:45;9.60;64.00
37642;DHT22;23486;51.956;5.888;2023-04-03T12:49:41;9.60;66.00
37642;DHT22;23486;51.956;5.888;2023-04-03T12:54:46;9.80;66.00
37642;DHT22;23486;51.956;5.888;2023-04-03T12:59:38;9.90;65.90
37642;DHT22;23486;51.956;5.888;2023-04-03T13:04:49;10.00;66.00
37642;DHT22;23486;51.956;5.888;2023-04-03T13:07:32;10.10;66.30
37642;DHT22;23486;51.956;5.888;2023-04-03T13:12:34;10.40;65.50
37642;DHT22;23486;51.956;5.888;2023-04-03T13:15:14;10.40;66.00
37642;DHT22;23486;51.956;5.888;2023-04-03T13:17:42;10.50;65.10
37642;DHT22;23486;51.956;5.888;2023-04-03T13:20:27;10.50;65.80
37642;DHT22;23486;51.956;5.888;2023-04-03T13:22:58;10.60;66.50
37642;DHT22;23486;51.956;5.888;2023-04-03T13:25:27;10.70;66.50
37642;DHT22;23486;51.956;5.888;2023-04-03T13:27:53;10.70;64.20
37642;DHT22;23486;51.956;5.888;2023-04-03T13:30:30;10.50;61.00
37642;DHT22;23486;51.956;5.888;2023-04-03T13:33:00;10.30;63.50
37642;DHT22;23486;51.956;5.888;2023-04-03T13:35:28;10.30;64.10
37642;DHT22;23486;51.956;5.888;2023-04-03T13:37:55;10.40;65.00
37642;DHT22;23486;51.956;5.888;2023-04-03T13:40:21;10.60;65.30
37642;DHT22;23486;51.956;5.888;2023-04-03T13:42:59;10.60;65.40
37642;DHT22;23486;51.956;5.888;2023-04-03T13:45:27;10.60;64.80
37642;DHT22;23486;51.956;5.888;2023-04-03T13:48:08;10.70;64.00
37642;DHT22;23486;51.956;5.888;2023-04-03T13:51:00;10.80;64.80
37642;DHT22;23486;51.956;5.888;2023-04-03T13:53:27;10.80;64.10
37642;DHT22;23486;51.956;5.888;2023-04-03T13:58:27;10.70;61.30
37642;DHT22;23486;51.956;5.888;2023-04-03T14:01:14;10.70;63.10
37642;DHT22;23486;51.956;5.888;2023-04-03T14:03:43;10.80;63.70
37642;DHT22;23486;51.956;5.888;2023-04-03T14:06:15;10.80;64.10
37642;DHT22;23486;51.956;5.888;2023-04-03T14:08:43;10.90;64.70
37642;DHT22;23486;51.956;5.888;2023-04-03T14:11:15;10.90;63.40
37642;DHT22;23486;51.956;5.888;2023-04-03T14:13:45;10.90;64.20
37642;DHT22;23486;51.956;5.888;2023-04-03T14:16:23;10.90;64.50
37642;DHT22;23486;51.956;5.888;2023-04-03T14:18:51;10.90;64.60
37642;DHT22;23486;51.956;5.888;2023-04-03T14:21:18;10.90;65.80
37642;DHT22;23486;51.956;5.888;2023-04-03T14:23:45;11.10;66.50
37642;DHT22;23486;51.956;5.888;2023-04-03T14:26:19;11.10;65.20
37642;DHT22;23486;51.956;5.888;2023-04-03T14:28:48;11.00;62.60
37642;DHT22;23486;51.956;5.888;2023-04-03T14:31:14;10.80;62.70
37642;DHT22;23486;51.956;5.888;2023-04-03T14:33:40;10.80;64.90
37642;DHT22;23486;51.956;5.888;2023-04-03T14:36:30;10.90;65.00
37642;DHT22;23486;51.956;5.888;2023-04-03T14:38:57;11.10;65.30
37642;DHT22;23486;51.956;5.888;2023-04-03T14:41:25;11.20;65.70
37642;DHT22;23486;51.956;5.888;2023-04-03T14:43:51;11.30;65.50
37642;DHT22;23486;51.956;5.888;2023-04-03T14:46:33;11.40;65.20
37642;DHT22;23486;51.956;5.888;2023-04-03T14:49:00;11.40;63.80
37642;DHT22;23486;51.956;5.888;2023-04-03T14:51:29;11.30;63.70
37642;DHT22;23486;51.956;5.888;2023-04-03T14:53:57;11.30;64.80
37642;DHT22;23486;51.956;5.888;2023-04-03T14:56:26;11.30;65.20
37642;DHT22;23486;51.956;5.888;2023-04-03T14:58:55;11.40;64.70
37642;DHT22;23486;51.956;5.888;2023-04-03T15:01:26;11.50;65.40
37642;DHT22;23486;51.956;5.888;2023-04-03T15:03:52;11.60;65.80
37642;DHT22;23486;51.956;5.888;2023-04-03T15:06:18;11.70;65.30
37642;DHT22;23486;51.956;5.888;2023-04-03T15:08:46;11.80;65.30
37642;DHT22;23486;51.956;5.888;2023-04-03T15:11:13;11.90;64.70
37642;DHT22;23486;51.956;5.888;2023-04-03T15:13:39;11.90;64.50
37642;DHT22;23486;51.956;5.888;2023-04-03T15:16:17;12.00;64.50
37642;DHT22;23486;51.956;5.888;2023-04-03T15:18:45;12.00;65.00
37642;DHT22;23486;51.956;5.888;2023-04-03T15:21:11;12.20;65.10
37642;DHT22;23486;51.956;5.888;2023-04-03T15:23:36;12.20;65.40
37642;DHT22;23486;51.956;5.888;2023-04-03T15:26:02;12.20;64.50
37642;DHT22;23486;51.956;5.888;2023-04-03T15:28:42;12.10;64.70
37642;DHT22;23486;51.956;5.888;2023-04-03T15:31:08;12.10;62.90
37642;DHT22;23486;51.956;5.888;2023-04-03T15:33:34;12.10;62.40
37642;DHT22;23486;51.956;5.888;2023-04-03T15:36:00;12.10;63.70
37642;DHT22;23486;51.956;5.888;2023-04-03T15:38:26;12.30;64.90
37642;DHT22;23486;51.956;5.888;2023-04-03T15:40:51;12.40;63.80
37642;DHT22;23486;51.956;5.888;2023-04-03T15:43:17;12.40;64.10
37642;DHT22;23486;51.956;5.888;2023-04-03T15:45:44;12.30;61.40
37642;DHT22;23486;51.956;5.888;2023-04-03T15:48:11;12.10;61.50
37642;DHT22;23486;51.956;5.888;2023-04-03T15:50:37;12.10;62.70
37642;DHT22;23486;51.956;5.888;2023-04-03T15:53:03;12.10;62.40
37642;DHT22;23486;51.956;5.888;2023-04-03T15:55:31;12.20;62.30
37642;DHT22;23486;51.956;5.888;2023-04-03T15:57:57;12.20;62.10
37642;DHT22;23486;51.956;5.888;2023-04-03T16:00:23;12.10;61.70
37642;DHT22;23486;51.956;5.888;2023-04-03T16:02:54;11.90;61.40
37642;DHT22;23486;51.956;5.888;2023-04-03T16:05:20;11.90;62.50
37642;DHT22;23486;51.956;5.888;2023-04-03T16:07:46;12.00;63.10
37642;DHT22;23486;51.956;5.888;2023-04-03T16:10:14;12.10;63.00
37642;DHT22;23486;51.956;5.888;2023-04-03T16:12:46;12.10;60.20
37642;DHT22;23486;51.956;5.888;2023-04-03T16:15:12;11.80;60.20
37642;DHT22;23486;51.956;5.888;2023-04-03T16:17:39;11.60;61.30
37642;DHT22;23486;51.956;5.888;2023-04-03T16:20:06;11.40;60.50
37642;DHT22;23486;51.956;5.888;2023-04-03T16:22:32;11.30;61.50
37642;DHT22;23486;51.956;5.888;2023-04-03T16:24:58;11.40;62.50
37642;DHT22;23486;51.956;5.888;2023-04-03T16:27:24;11.50;62.00
37642;DHT22;23486;51.956;5.888;2023-04-03T16:29:54;11.60;62.60
37642;DHT22;23486;51.956;5.888;2023-04-03T16:32:20;11.60;62.30
37642;DHT22;23486;51.956;5.888;2023-04-03T16:34:46;11.70;62.70
37642;DHT22;23486;51.956;5.888;2023-04-03T16:37:11;11.60;62.00
37642;DHT22;23486;51.956;5.888;2023-04-03T16:39:40;11.40;61.10
37642;DHT22;23486;51.956;5.888;2023-04-03T16:42:05;11.30;61.80
37642;DHT22;23486;51.956;5.888;2023-04-03T16:44:34;11.10;61.90
37642;DHT22;23486;51.956;5.888;2023-04-03T16:46:59;11.00;62.40
37642;DHT22;23486;51.956;5.888;2023-04-03T16:49:25;10.80;62.20
37642;DHT22;23486;51.956;5.888;2023-04-03T16:51:53;10.70;62.90
37642;DHT22;23486;51.956;5.888;2023-04-03T16:54:18;10.60;62.60
37642;DHT22;23486;51.956;5.888;2023-04-03T16:56:45;10.60;62.70
37642;DHT22;23486;51.956;5.888;2023-04-03T16:59:10;10.60;63.20
37642;DHT22;23486;51.956;5.888;2023-04-03T17:01:36;10.60;63.60
37642;DHT22;23486;51.956;5.888;2023-04-03T17:04:01;10.60;64.20
37642;DHT22;23486;51.956;5.888;2023-04-03T17:06:27;10.70;63.50
37642;DHT22;23486;51.956;5.888;2023-04-03T17:08:53;10.50;63.00
37642;DHT22;23486;51.956;5.888;2023-04-03T17:11:18;10.30;62.90
37642;DHT22;23486;51.956;5.888;2023-04-03T17:13:44;10.20;62.70
37642;DHT22;23486;51.956;5.888;2023-04-03T17:16:13;10.00;63.50
37642;DHT22;23486;51.956;5.888;2023-04-03T17:18:39;10.00;64.10
37642;DHT22;23486;51.956;5.888;2023-04-03T17:21:06;9.90;64.30
37642;DHT22;23486;51.956;5.888;2023-04-03T17:23:32;9.80;64.70
37642;DHT22;23486;51.956;5.888;2023-04-03T17:26:03;9.70;64.90
37642;DHT22;23486;51.956;5.888;2023-04-03T17:28:28;9.60;65.20
37642;DHT22;23486;51.956;5.888;2023-04-03T17:30:55;9.40;65.20
37642;DHT22;23486;51.956;5.888;2023-04-03T17:33:21;9.20;65.40
37642;DHT22;23486;51.956;5.888;2023-04-03T17:35:47;9.20;66.00
37642;DHT22;23486;51.956;5.888;2023-04-03T17:38:16;9.10;66.50
37642;DHT22;23486;51.956;5.888;2023-04-03T17:40:44;9.10;66.60
37642;DHT22;23486;51.956;5.888;2023-04-03T17:43:11;9.10;66.80